Time;durP1;ratioP1;P1;durP2;ratioP2;P2;SDS_P1;SDS_P2;PMS_P1;PMS_P2;Temp;Humidity;BMP_temperature;BMP_pressure;BME280_temperature;BME280_humidity;BME280_pressure;Samples;Min_cycle;Max_cycle;Signal;HPM_P1;HPM_P2
2021/08/14 00:00:32;;;;;;;5.07;4.10;;;24.90;57.40;;;;;;5092357;28;20189;-69
2021/08/14 00:03:01;;;;;;;4.20;3.80;;;24.80;57.30;;;;;;5111174;27;20265;-69
2021/08/14 00:05:33;;;;;;;4.20;3.90;;;24.90;57.30;;;;;;5111157;28;20216;-69
2021/08/14 00:08:04;;;;;;;4.67;4.10;;;24.80;57.30;;;;;;5108267;28;20610;-69
2021/08/14 00:10:33;;;;;;;5.63;4.07;;;24.90;57.40;;;;;;5109792;28;20232;-69
2021/08/14 00:13:07;;;;;;;5.13;4.13;;;24.80;57.30;;;;;;5109469;28;20201;-68
2021/08/14 00:15:36;;;;;;;4.13;3.73;;;24.80;57.30;;;;;;5074487;28;20265;-68
2021/08/14 00:18:08;;;;;;;4.40;4.00;;;24.80;57.30;;;;;;5109848;27;20569;-69
2021/08/14 00:20:38;;;;;;;4.50;4.10;;;24.80;57.40;;;;;;5076535;27;20215;-69
2021/08/14 00:23:08;;;;;;;5.10;4.07;;;24.80;57.30;;;;;;5094044;28;20713;-68
2021/08/14 00:25:41;;;;;;;4.40;4.00;;;24.80;57.40;;;;;;5093736;27;20208;-68
2021/08/14 00:28:10;;;;;;;5.10;4.17;;;24.80;57.40;;;;;;5110356;27;20224;-68
2021/08/14 00:30:41;;;;;;;4.40;3.90;;;24.80;57.40;;;;;;5091052;27;20665;-69
2021/08/14 00:33:10;;;;;;;5.17;4.23;;;24.80;57.40;;;;;;5106959;28;20447;-68
2021/08/14 00:35:42;;;;;;;4.33;3.90;;;24.80;57.40;;;;;;5115855;27;20207;-68
2021/08/14 00:38:12;;;;;;;5.50;4.57;;;24.80;57.40;;;;;;5110001;28;20196;-68
2021/08/14 00:40:45;;;;;;;4.37;3.93;;;24.80;57.40;;;;;;5110660;27;20195;-68
2021/08/14 00:43:17;;;;;;;5.70;4.53;;;24.80;57.40;;;;;;5109664;28;20200;-68
2021/08/14 00:45:47;;;;;;;4.60;3.87;;;24.80;57.40;;;;;;5109142;27;20216;-68
2021/08/14 00:48:35;;;;;;;3.70;3.40;;;24.70;57.30;;;;;;5108279;28;20204;-68
2021/08/14 00:51:08;;;;;;;4.37;3.97;;;24.70;57.40;;;;;;5083153;28;20212;-69
2021/08/14 00:53:39;;;;;;;5.10;4.17;;;24.70;57.30;;;;;;5109328;27;20196;-69
2021/08/14 00:56:09;;;;;;;4.97;4.47;;;24.70;57.40;;;;;;5107996;28;20203;-69
2021/08/14 00:58:38;;;;;;;5.30;4.33;;;24.70;57.40;;;;;;5108608;28;20371;-70
2021/08/14 01:01:11;;;;;;;4.77;4.13;;;24.70;57.30;;;;;;5105483;27;20820;-69
2021/08/14 01:03:41;;;;;;;4.30;3.80;;;24.70;57.40;;;;;;5092066;28;20196;-68
2021/08/14 01:06:16;;;;;;;4.67;4.27;;;24.70;57.40;;;;;;5108721;27;20243;-69
2021/08/14 01:08:52;;;;;;;4.13;3.57;;;24.70;57.40;;;;;;5089481;28;20208;-70
2021/08/14 01:11:21;;;;;;;5.20;3.80;;;24.70;57.40;;;;;;5108025;27;20250;-69
2021/08/14 01:13:53;;;;;;;4.30;3.67;;;24.70;57.40;;;;;;5110372;27;20210;-69
2021/08/14 01:16:29;;;;;;;4.53;4.13;;;24.70;57.50;;;;;;5091262;28;20261;-69
2021/08/14 01:19:11;;;;;;;4.13;3.73;;;24.70;57.40;;;;;;5109666;27;20205;-69
2021/08/14 01:21:48;;;;;;;4.47;3.63;;;24.70;57.50;;;;;;5093418;28;20218;-69
2021/08/14 01:24:22;;;;;;;5.20;4.00;;;24.70;57.50;;;;;;5091532;28;20204;-69
2021/08/14 01:26:50;;;;;;;4.20;3.80;;;24.60;57.50;;;;;;5069722;28;20228;-69
2021/08/14 01:29:24;;;;;;;3.87;3.57;;;24.60;58.00;;;;;;5106217;28;20636;-69
2021/08/14 01:31:55;;;;;;;4.83;4.30;;;24.60;57.60;;;;;;5102954;28;20208;-69
2021/08/14 01:34:25;;;;;;;4.30;3.90;;;24.60;57.60;;;;;;5109267;28;20261;-68
2021/08/14 01:36:56;;;;;;;3.97;3.50;;;24.60;57.60;;;;;;5086215;28;20200;-68
2021/08/14 01:39:27;;;;;;;3.93;3.57;;;24.60;58.20;;;;;;5092108;28;20211;-70
2021/08/14 01:42:06;;;;;;;4.37;3.80;;;24.60;57.60;;;;;;5108731;28;20669;-68
2021/08/14 01:44:35;;;;;;;4.87;4.00;;;24.60;57.50;;;;;;5107459;28;20211;-69
2021/08/14 01:47:09;;;;;;;7.10;4.13;;;24.60;57.50;;;;;;5092606;28;20311;-69
2021/08/14 01:49:42;;;;;;;3.80;3.40;;;24.60;57.50;;;;;;5107712;28;20696;-69
2021/08/14 01:52:17;;;;;;;4.00;3.50;;;24.60;57.50;;;;;;5108241;28;20557;-69
2021/08/14 01:54:47;;;;;;;4.63;3.57;;;24.60;57.90;;;;;;5089832;28;20278;-69
2021/08/14 01:57:19;;;;;;;4.73;3.80;;;24.60;57.40;;;;;;5082771;28;20217;-69
2021/08/14 01:59:47;;;;;;;4.17;3.80;;;24.60;57.40;;;;;;5106681;28;20196;-69
2021/08/14 02:02:19;;;;;;;3.90;3.50;;;24.60;57.40;;;;;;5107376;28;20196;-69
2021/08/14 02:04:49;;;;;;;4.40;4.00;;;24.60;57.40;;;;;;5107048;28;20540;-69
2021/08/14 02:07:20;;;;;;;5.33;3.87;;;24.60;57.50;;;;;;5108230;28;20228;-69
2021/08/14 02:09:54;;;;;;;4.07;3.67;;;24.60;57.40;;;;;;5106828;28;20189;-69
2021/08/14 02:12:21;;;;;;;3.87;3.57;;;24.60;57.40;;;;;;5105397;28;20211;-69
2021/08/14 02:14:51;;;;;;;4.73;4.20;;;24.60;57.40;;;;;;5089897;28;20196;-69
2021/08/14 02:17:24;;;;;;;3.90;3.40;;;24.60;57.40;;;;;;5109354;28;20192;-69
2021/08/14 02:19:51;;;;;;;6.27;3.90;;;24.60;57.40;;;;;;5089530;28;20530;-70
2021/08/14 02:22:20;;;;;;;5.60;4.03;;;24.50;57.40;;;;;;5091295;28;20811;-69
2021/08/14 02:24:49;;;;;;;4.30;3.90;;;24.50;57.40;;;;;;5107985;28;20245;-68
2021/08/14 02:27:19;;;;;;;6.67;3.87;;;24.50;57.40;;;;;;5108930;28;20216;-69
2021/08/14 02:29:50;;;;;;;4.27;3.60;;;24.50;57.30;;;;;;5089147;28;20207;-69
2021/08/14 02:32:22;;;;;;;4.73;3.80;;;24.50;57.30;;;;;;5089014;28;20245;-69
2021/08/14 02:34:50;;;;;;;4.20;3.80;;;24.50;57.30;;;;;;5108673;28;20200;-69
2021/08/14 02:37:18;;;;;;;3.90;3.50;;;24.50;57.30;;;;;;5108951;28;20212;-69
2021/08/14 02:39:51;;;;;;;3.97;3.57;;;24.50;57.30;;;;;;5110349;28;20192;-69
2021/08/14 02:42:23;;;;;;;4.07;3.73;;;24.50;57.40;;;;;;5111845;27;20204;-69
2021/08/14 02:44:54;;;;;;;5.23;4.10;;;24.50;57.40;;;;;;5111488;28;20188;-69
2021/08/14 02:47:25;;;;;;;4.00;3.53;;;24.50;57.40;;;;;;5112816;27;20910;-69
2021/08/14 02:49:56;;;;;;;4.63;4.00;;;24.50;57.30;;;;;;5109923;28;20228;-69
2021/08/14 02:52:28;;;;;;;3.90;3.47;;;24.50;57.40;;;;;;5110754;27;20220;-69
2021/08/14 02:54:59;;;;;;;4.73;3.87;;;24.50;57.40;;;;;;5110697;28;20181;-69
2021/08/14 02:57:30;;;;;;;4.33;3.90;;;24.50;57.40;;;;;;5110942;27;20204;-69
2021/08/14 03:00:03;;;;;;;4.67;4.00;;;24.40;57.30;;;;;;5112284;27;20618;-69
2021/08/14 03:02:36;;;;;;;5.27;3.80;;;24.40;57.30;;;;;;5110715;28;20560;-69
2021/08/14 03:05:06;;;;;;;4.43;4.03;;;24.40;57.30;;;;;;5109426;28;20229;-69
2021/08/14 03:07:46;;;;;;;4.10;3.70;;;24.40;57.30;;;;;;5111163;27;20273;-68
2021/08/14 03:10:17;;;;;;;3.90;3.57;;;24.40;57.30;;;;;;5111519;27;20340;-69
2021/08/14 03:12:48;;;;;;;4.10;3.60;;;24.40;57.40;;;;;;5110341;28;20747;-68
2021/08/14 03:15:19;;;;;;;4.73;3.97;;;24.40;57.30;;;;;;5111333;27;20273;-68
2021/08/14 03:17:54;;;;;;;4.20;3.60;;;24.40;57.30;;;;;;5091851;28;20192;-68
2021/08/14 03:20:30;;;;;;;5.03;4.10;;;24.40;57.30;;;;;;5107146;28;20235;-68
2021/08/14 03:23:02;;;;;;;5.03;4.03;;;24.40;57.40;;;;;;5111125;27;20657;-69
2021/08/14 03:25:32;;;;;;;3.87;3.33;;;24.40;57.40;;;;;;5078532;28;20676;-69
2021/08/14 03:28:12;;;;;;;4.23;3.40;;;24.40;57.40;;;;;;5110630;28;20541;-69
2021/08/14 03:30:42;;;;;;;3.83;3.40;;;24.40;57.40;;;;;;5111356;27;20193;-69
2021/08/14 03:33:13;;;;;;;4.40;3.47;;;24.40;57.40;;;;;;5107524;28;20688;-69
2021/08/14 03:35:47;;;;;;;4.47;3.53;;;24.40;57.40;;;;;;5110776;27;20196;-69
2021/08/14 03:38:18;;;;;;;5.20;3.83;;;24.40;57.40;;;;;;5107807;28;20219;-69
2021/08/14 03:40:49;;;;;;;5.37;3.70;;;24.40;57.40;;;;;;5111675;27;20619;-69
2021/08/14 03:43:20;;;;;;;3.93;3.53;;;24.40;57.40;;;;;;5091837;28;20192;-69
2021/08/14 03:45:57;;;;;;;4.10;3.70;;;24.40;57.40;;;;;;5109756;27;20185;-69
2021/08/14 03:48:27;;;;;;;3.63;3.30;;;24.40;57.40;;;;;;5111250;27;20256;-69
2021/08/14 03:50:58;;;;;;;3.83;3.07;;;24.30;57.40;;;;;;5090404;28;20201;-69
2021/08/14 03:53:31;;;;;;;3.47;3.17;;;24.30;57.30;;;;;;5095753;28;20202;-69
2021/08/14 03:56:03;;;;;;;3.80;3.50;;;24.30;57.30;;;;;;5111772;27;20216;-69
2021/08/14 03:58:35;;;;;;;4.00;3.60;;;24.30;57.30;;;;;;5075283;28;20223;-69
2021/08/14 04:01:07;;;;;;;4.90;3.57;;;24.40;57.40;;;;;;5093660;28;20188;-68
2021/08/14 04:03:38;;;;;;;3.83;3.30;;;24.30;57.40;;;;;;5108848;28;20197;-69
2021/08/14 04:06:11;;;;;;;4.67;3.37;;;24.30;57.40;;;;;;5091459;28;20281;-69
2021/08/14 04:08:45;;;;;;;4.70;3.20;;;24.30;57.40;;;;;;5109971;27;20630;-69
2021/08/14 04:11:16;;;;;;;3.63;3.30;;;24.30;57.40;;;;;;5096149;28;20233;-70
2021/08/14 04:13:52;;;;;;;3.47;3.17;;;24.30;57.40;;;;;;5106435;27;20185;-69
2021/08/14 04:16:20;;;;;;;4.43;3.50;;;24.30;57.40;;;;;;5117619;28;20259;-70
2021/08/14 04:18:53;;;;;;;3.70;3.20;;;24.30;57.40;;;;;;5108453;27;20200;-69
2021/08/14 04:21:23;;;;;;;3.40;3.10;;;24.30;57.40;;;;;;5111765;27;20532;-70
2021/08/14 04:23:52;;;;;;;3.40;3.00;;;24.30;57.50;;;;;;5109507;28;20207;-70
2021/08/14 04:26:23;;;;;;;3.67;2.90;;;24.30;57.40;;;;;;5074354;28;20235;-70
2021/08/14 04:28:51;;;;;;;3.50;3.20;;;24.30;57.40;;;;;;5092601;28;20219;-70
2021/08/14 04:31:20;;;;;;;3.40;2.90;;;24.30;57.40;;;;;;5109245;28;20223;-70
2021/08/14 04:33:52;;;;;;;3.33;3.03;;;24.30;57.40;;;;;;5109055;27;20519;-70
2021/08/14 04:36:20;;;;;;;3.90;3.10;;;24.30;57.40;;;;;;5109448;27;20211;-70
2021/08/14 04:38:52;;;;;;;3.47;3.17;;;24.20;57.30;;;;;;5109561;27;20215;-70
2021/08/14 04:41:36;;;;;;;3.50;3.20;;;24.20;57.30;;;;;;5101304;28;20212;-70
2021/08/14 04:44:08;;;;;;;4.20;3.17;;;24.20;57.30;;;;;;5107529;28;20198;-70
2021/08/14 04:46:38;;;;;;;3.60;3.10;;;24.20;57.30;;;;;;5110399;28;20216;-71
2021/08/14 04:49:12;;;;;;;3.47;2.80;;;24.20;57.30;;;;;;5108078;28;20188;-70
2021/08/14 04:51:43;;;;;;;3.80;3.33;;;24.20;57.30;;;;;;5110294;27;20196;-70
2021/08/14 04:54:13;;;;;;;3.33;3.03;;;24.20;57.30;;;;;;5092056;28;20196;-70
2021/08/14 04:56:43;;;;;;;3.67;3.00;;;24.20;57.30;;;;;;5092152;27;20226;-70
2021/08/14 04:59:15;;;;;;;4.67;3.50;;;24.20;57.30;;;;;;5108153;28;20220;-70
2021/08/14 05:01:46;;;;;;;4.37;3.37;;;24.20;57.30;;;;;;5107987;28;20314;-70
2021/08/14 05:04:17;;;;;;;3.10;2.80;;;24.20;57.30;;;;;;5108381;28;20196;-70
2021/08/14 05:06:48;;;;;;;4.90;3.20;;;24.20;57.20;;;;;;5108948;27;20209;-70
2021/08/14 05:09:24;;;;;;;3.33;3.03;;;24.20;57.20;;;;;;5106433;28;20193;-70
2021/08/14 05:11:55;;;;;;;3.50;3.00;;;24.20;57.20;;;;;;5104449;28;20231;-70
2021/08/14 05:14:24;;;;;;;3.10;2.80;;;24.20;57.20;;;;;;5099158;28;20200;-70
2021/08/14 05:16:54;;;;;;;4.00;3.10;;;24.20;57.30;;;;;;5109178;27;20722;-70
2021/08/14 05:19:24;;;;;;;3.83;3.10;;;24.20;57.30;;;;;;5090906;28;20211;-71
2021/08/14 05:21:54;;;;;;;3.27;2.93;;;24.10;57.20;;;;;;5107963;27;20297;-71
2021/08/14 05:24:23;;;;;;;3.37;2.77;;;24.20;57.30;;;;;;5120262;27;20192;-71
2021/08/14 05:26:53;;;;;;;4.80;3.00;;;24.10;57.20;;;;;;5109498;27;20498;-71
2021/08/14 05:29:24;;;;;;;3.10;2.80;;;24.20;57.20;;;;;;5111931;28;20231;-69
2021/08/14 05:31:53;;;;;;;3.60;3.07;;;24.10;57.10;;;;;;5108397;28;20561;-71
2021/08/14 05:34:25;;;;;;;4.03;3.30;;;24.20;57.20;;;;;;5105918;28;20188;-71
2021/08/14 05:36:57;;;;;;;3.70;2.80;;;24.20;57.20;;;;;;5109210;28;20208;-70
2021/08/14 05:39:27;;;;;;;4.00;3.17;;;24.10;57.70;;;;;;5107422;28;20455;-70
2021/08/14 05:41:57;;;;;;;4.13;3.10;;;24.10;57.10;;;;;;5105485;28;20253;-70
2021/08/14 05:44:26;;;;;;;4.50;2.80;;;24.20;57.20;;;;;;5091381;28;20200;-70
2021/08/14 05:46:58;;;;;;;3.03;2.73;;;24.10;57.10;;;;;;5107674;28;20236;-70
2021/08/14 05:49:30;;;;;;;3.87;2.97;;;24.10;57.10;;;;;;5107917;28;20609;-70
2021/08/14 05:52:05;;;;;;;3.30;2.83;;;24.10;57.10;;;;;;5108398;28;20223;-70
2021/08/14 05:54:38;;;;;;;3.90;2.97;;;24.10;57.10;;;;;;5106973;28;20204;-71
2021/08/14 05:57:07;;;;;;;3.83;2.70;;;24.10;57.10;;;;;;5108677;28;20188;-71
2021/08/14 05:59:37;;;;;;;4.47;3.10;;;24.10;57.10;;;;;;5110042;28;20264;-70
2021/08/14 06:02:07;;;;;;;2.93;2.63;;;24.10;57.10;;;;;;5121881;28;20204;-71
2021/08/14 06:04:38;;;;;;;3.80;2.83;;;24.10;57.10;;;;;;5114920;28;20191;-70
2021/08/14 06:07:08;;;;;;;3.27;2.93;;;24.10;57.10;;;;;;5113911;28;20195;-70
2021/08/14 06:09:36;;;;;;;2.93;2.50;;;24.10;57.10;;;;;;5110957;28;20196;-70
2021/08/14 06:12:06;;;;;;;3.50;2.70;;;24.10;57.00;;;;;;5097078;28;20228;-69
2021/08/14 06:14:37;;;;;;;3.77;2.87;;;24.10;57.10;;;;;;5118275;27;20744;-70
2021/08/14 06:17:08;;;;;;;3.67;2.90;;;24.10;57.10;;;;;;5093983;28;20235;-70
2021/08/14 06:19:39;;;;;;;3.87;2.70;;;24.10;57.00;;;;;;5089913;28;20212;-70
2021/08/14 06:22:11;;;;;;;3.50;2.40;;;24.10;57.00;;;;;;5111028;28;20189;-70
2021/08/14 06:24:45;;;;;;;3.47;2.80;;;24.10;57.00;;;;;;5112595;27;20653;-70
2021/08/14 06:27:13;;;;;;;3.17;2.60;;;24.10;57.00;;;;;;5117279;27;20215;-70
2021/08/14 06:29:42;;;;;;;3.47;3.10;;;24.10;57.00;;;;;;5113258;27;20196;-71
2021/08/14 06:32:14;;;;;;;3.30;2.80;;;24.10;57.10;;;;;;5111016;27;20188;-70
2021/08/14 06:34:45;;;;;;;3.70;2.63;;;24.10;57.00;;;;;;5111304;27;20197;-71
2021/08/14 06:37:13;;;;;;;4.00;2.70;;;24.10;57.00;;;;;;5094953;28;20204;-71
2021/08/14 06:39:42;;;;;;;4.27;3.00;;;24.10;57.00;;;;;;5116871;27;20683;-71
2021/08/14 06:42:14;;;;;;;3.10;2.60;;;24.10;57.00;;;;;;5112885;28;20211;-71
2021/08/14 06:44:43;;;;;;;3.33;2.60;;;24.10;57.00;;;;;;5111607;27;20721;-71
2021/08/14 06:47:14;;;;;;;3.40;2.90;;;24.10;57.00;;;;;;5113450;28;20220;-70
2021/08/14 06:49:47;;;;;;;3.47;2.70;;;24.10;57.00;;;;;;5106762;27;20676;-69
2021/08/14 06:52:18;;;;;;;4.80;3.07;;;24.10;57.00;;;;;;5111017;27;20211;-70
2021/08/14 06:54:47;;;;;;;3.63;2.40;;;24.10;57.00;;;;;;5112651;27;20193;-69
2021/08/14 06:57:30;;;;;;;3.17;2.70;;;24.10;57.10;;;;;;5110781;28;20283;-70
2021/08/14 06:59:58;;;;;;;3.93;2.70;;;24.10;57.10;;;;;;5116098;27;20196;-69
2021/08/14 07:02:30;;;;;;;2.83;2.50;;;24.10;57.10;;;;;;5113302;27;20297;-69
2021/08/14 07:05:05;;;;;;;4.63;3.10;;;24.10;57.00;;;;;;5092808;27;20200;-69
2021/08/14 07:07:38;;;;;;;3.60;2.40;;;24.10;57.10;;;;;;5087518;27;20269;-69
2021/08/14 07:10:13;;;;;;;4.33;2.80;;;24.10;57.00;;;;;;5112223;27;20237;-69
2021/08/14 07:12:43;;;;;;;3.63;2.50;;;24.10;57.10;;;;;;5110133;27;20227;-69
2021/08/14 07:15:13;;;;;;;4.17;3.03;;;24.10;57.00;;;;;;5116813;27;20196;-70
2021/08/14 07:17:48;;;;;;;4.30;2.93;;;24.10;57.00;;;;;;5093867;27;20219;-70
2021/08/14 07:20:20;;;;;;;4.63;2.90;;;24.10;57.00;;;;;;5097116;27;20774;-70
2021/08/14 07:22:50;;;;;;;3.53;2.40;;;24.10;57.00;;;;;;5108993;27;20228;-70
2021/08/14 07:25:22;;;;;;;4.50;2.70;;;24.10;57.00;;;;;;5097212;28;20200;-70
2021/08/14 07:27:52;;;;;;;4.27;2.67;;;24.10;57.00;;;;;;5090255;28;20219;-70
2021/08/14 07:30:20;;;;;;;4.17;2.53;;;24.10;57.00;;;;;;5110767;27;20198;-70
2021/08/14 07:32:49;;;;;;;3.47;2.60;;;24.10;57.00;;;;;;5111007;27;20196;-70
2021/08/14 07:35:16;;;;;;;4.30;2.60;;;24.10;56.90;;;;;;5095631;28;20580;-70
2021/08/14 07:37:49;;;;;;;4.30;2.67;;;24.10;57.00;;;;;;5109643;27;20622;-70
2021/08/14 07:40:20;;;;;;;3.53;2.77;;;24.10;57.60;;;;;;5094909;28;20200;-70
2021/08/14 07:42:49;;;;;;;3.57;2.63;;;24.10;57.00;;;;;;5108540;27;20219;-70
2021/08/14 07:45:21;;;;;;;4.23;3.20;;;24.10;56.90;;;;;;5092464;27;20251;-70
2021/08/14 07:47:52;;;;;;;4.53;2.60;;;24.10;56.90;;;;;;5092492;28;20659;-71
2021/08/14 07:50:29;;;;;;;4.27;2.90;;;24.10;57.00;;;;;;5113328;27;20197;-71
2021/08/14 07:52:59;;;;;;;5.53;3.03;;;24.10;57.00;;;;;;5092386;27;20199;-70
2021/08/14 07:55:44;;;;;;;5.23;2.90;;;24.10;57.00;;;;;;5111419;27;20208;-69
2021/08/14 07:58:17;;;;;;;4.73;3.10;;;24.10;56.90;;;;;;5111825;27;20195;-70
2021/08/14 08:00:48;;;;;;;4.10;2.80;;;24.10;57.00;;;;;;5095692;28;20680;-70
2021/08/14 08:03:18;;;;;;;3.57;2.50;;;24.10;57.00;;;;;;5119011;27;20606;-70
2021/08/14 08:05:50;;;;;;;4.67;2.87;;;24.20;57.20;;;;;;5119087;27;20200;-69
2021/08/14 08:08:23;;;;;;;4.20;2.70;;;24.10;57.20;;;;;;5099110;28;20204;-71
2021/08/14 08:10:53;;;;;;;3.83;2.43;;;24.10;57.00;;;;;;5106392;27;20211;-70
2021/08/14 08:13:23;;;;;;;4.67;2.90;;;24.10;57.00;;;;;;5086874;28;20667;-66
2021/08/14 08:15:54;;;;;;;5.67;3.30;;;24.10;57.10;;;;;;5088731;28;20262;-69
2021/08/14 08:18:27;;;;;;;4.43;2.80;;;24.20;57.40;;;;;;5097786;28;20200;-69
2021/08/14 08:20:56;;;;;;;3.67;2.60;;;24.30;57.60;;;;;;5090061;28;20211;-68
2021/08/14 08:23:26;;;;;;;5.67;3.00;;;24.30;57.70;;;;;;5097555;28;20196;-68
2021/08/14 08:25:54;;;;;;;4.43;3.10;;;24.30;57.70;;;;;;5092980;28;20854;-72
2021/08/14 08:28:24;;;;;;;5.70;3.10;;;24.40;57.80;;;;;;5088429;28;20196;-71
2021/08/14 08:30:53;;;;;;;6.33;2.90;;;24.40;57.90;;;;;;5091479;28;20201;-72
2021/08/14 08:33:22;;;;;;;5.00;3.07;;;24.50;58.20;;;;;;5093908;28;20193;-70
2021/08/14 08:35:53;;;;;;;9.60;3.27;;;24.50;58.40;;;;;;5088131;28;20201;-70
2021/08/14 08:38:25;;;;;;;8.57;3.10;;;24.50;58.40;;;;;;5090241;28;20185;-70
2021/08/14 08:40:56;;;;;;;9.60;2.70;;;24.60;58.30;;;;;;5094571;28;20205;-70
2021/08/14 08:43:40;;;;;;;7.77;3.10;;;24.60;58.10;;;;;;5094234;28;20280;-70
2021/08/14 08:46:12;;;;;;;6.47;2.80;;;24.60;57.90;;;;;;5085517;28;20197;-70
2021/08/14 08:48:48;;;;;;;7.33;2.70;;;24.60;57.70;;;;;;5081926;28;20269;-73
2021/08/14 08:51:31;;;;;;;8.30;2.83;;;24.60;57.60;;;;;;5085809;28;20343;-69
2021/08/14 08:54:00;;;;;;;4.40;2.77;;;24.70;57.70;;;;;;5092306;28;20211;-69
2021/08/14 08:56:32;;;;;;;5.80;2.90;;;24.70;57.60;;;;;;5088318;28;20211;-68
2021/08/14 08:59:04;;;;;;;7.40;3.03;;;24.70;57.60;;;;;;5102522;28;20200;-70
2021/08/14 09:01:39;;;;;;;5.97;2.93;;;24.80;57.50;;;;;;5075772;28;20215;-71
2021/08/14 09:04:29;;;;;;;8.70;3.20;;;24.80;57.50;;;;;;5096239;28;20205;-72
2021/08/14 09:07:31;;;;;;;6.10;3.30;;;24.80;57.40;;;;;;5086806;28;20343;-69
2021/08/14 09:10:10;;;;;;;4.60;2.70;;;24.90;57.50;;;;;;5083888;28;20201;-69
2021/08/14 09:12:41;;;;;;;5.87;2.87;;;24.90;57.50;;;;;;5106727;27;20798;-68
2021/08/14 09:15:16;;;;;;;6.93;2.60;;;25.00;57.70;;;;;;5078721;27;20666;-68
2021/08/14 09:17:58;;;;;;;7.37;2.60;;;25.00;57.70;;;;;;5085688;28;20207;-68
2021/08/14 09:20:30;;;;;;;7.30;3.10;;;25.00;57.70;;;;;;5107621;27;20910;-69
2021/08/14 09:23:07;;;;;;;7.20;3.07;;;25.10;57.70;;;;;;5097836;28;20613;-71
2021/08/14 09:26:00;;;;;;;5.17;3.03;;;25.10;57.70;;;;;;5096531;28;20204;-71
2021/08/14 09:28:37;;;;;;;5.47;3.00;;;25.20;57.70;;;;;;5069791;28;20246;-70
2021/08/14 09:31:06;;;;;;;4.47;2.80;;;25.20;57.60;;;;;;5090568;28;20215;-70
2021/08/14 09:33:45;;;;;;;3.77;2.63;;;25.30;57.70;;;;;;5099783;27;20207;-68
2021/08/14 09:36:15;;;;;;;7.53;2.80;;;25.30;57.60;;;;;;5108651;28;20224;-68
2021/08/14 09:38:45;;;;;;;3.97;2.60;;;25.40;57.60;;;;;;5108398;28;20252;-68
2021/08/14 09:41:26;;;;;;;7.13;3.27;;;25.40;57.60;;;;;;5106262;27;20204;-69
2021/08/14 09:43:56;;;;;;;5.70;2.80;;;25.40;57.50;;;;;;5092667;28;20204;-67
2021/08/14 09:46:43;;;;;;;4.93;3.40;;;25.40;57.50;;;;;;5110316;28;20204;-68
2021/08/14 09:49:13;;;;;;;6.97;3.53;;;25.40;57.40;;;;;;5119744;27;20220;-69
2021/08/14 09:51:44;;;;;;;7.77;3.57;;;25.50;56.70;;;;;;5114312;27;20192;-67
2021/08/14 09:54:15;;;;;;;9.93;4.20;;;25.50;56.90;;;;;;5118524;27;20199;-66
2021/08/14 09:56:45;;;;;;;9.93;4.13;;;25.50;57.80;;;;;;5116108;27;20547;-66
2021/08/14 09:59:22;;;;;;;7.53;4.07;;;25.60;58.40;;;;;;5122112;27;20206;-65
2021/08/14 10:02:00;;;;;;;10.87;4.37;;;25.60;59.40;;;;;;5101939;27;20599;-66
2021/08/14 10:04:30;;;;;;;8.77;4.37;;;25.60;60.60;;;;;;5115808;27;20219;-66
2021/08/14 10:06:59;;;;;;;9.87;4.77;;;25.60;61.60;;;;;;5112339;27;20277;-67
2021/08/14 10:09:30;;;;;;;8.63;4.17;;;25.60;62.00;;;;;;5105604;27;20684;-66
2021/08/14 10:12:01;;;;;;;10.03;4.30;;;25.60;62.00;;;;;;5116586;27;20231;-65
2021/08/14 10:14:33;;;;;;;10.63;4.43;;;25.60;62.30;;;;;;5103389;27;20192;-67
2021/08/14 10:17:16;;;;;;;8.07;3.87;;;25.70;62.60;;;;;;5099013;27;20191;-65
2021/08/14 10:19:49;;;;;;;7.07;4.30;;;25.70;63.00;;;;;;5097260;27;20268;-65
2021/08/14 10:22:25;;;;;;;8.07;4.07;;;25.70;63.20;;;;;;5122428;27;20620;-66
2021/08/14 10:24:55;;;;;;;7.90;4.50;;;25.70;63.30;;;;;;5112006;27;20214;-65
2021/08/14 10:27:25;;;;;;;6.17;3.70;;;25.70;62.90;;;;;;5113173;27;20732;-65
2021/08/14 10:30:02;;;;;;;8.57;3.87;;;25.70;62.60;;;;;;5113287;27;20205;-66
2021/08/14 10:32:38;;;;;;;8.37;4.17;;;25.70;62.80;;;;;;5116085;27;20191;-65
2021/08/14 10:35:20;;;;;;;7.93;4.07;;;25.70;63.30;;;;;;5093295;28;20194;-65
2021/08/14 10:37:50;;;;;;;6.20;3.60;;;25.70;63.00;;;;;;5121840;27;20205;-65
2021/08/14 10:40:23;;;;;;;10.23;4.70;;;25.70;62.70;;;;;;5097375;27;20664;-64
2021/08/14 10:42:57;;;;;;;11.17;4.73;;;25.70;62.60;;;;;;5111666;28;20697;-64
2021/08/14 10:45:37;;;;;;;15.97;5.70;;;25.70;62.90;;;;;;5112582;27;20208;-64
2021/08/14 10:48:10;;;;;;;16.73;6.50;;;25.70;62.90;;;;;;5084525;27;20603;-65
2021/08/14 10:50:56;;;;;;;12.60;5.90;;;25.70;62.90;;;;;;5109362;28;20583;-64
2021/08/14 10:53:41;;;;;;;12.10;5.03;;;25.70;62.90;;;;;;5110247;28;20200;-65
2021/08/14 10:56:51;;;;;;;10.90;5.00;;;25.70;62.70;;;;;;5109200;28;20212;-65
2021/08/14 10:59:35;;;;;;;9.80;5.50;;;25.70;62.90;;;;;;5112053;27;20189;-65
2021/08/14 11:02:06;;;;;;;10.07;5.10;;;25.70;62.90;;;;;;5110654;28;20184;-64
2021/08/14 11:04:41;;;;;;;7.63;4.30;;;25.70;62.80;;;;;;5111980;27;20201;-65
2021/08/14 11:07:23;;;;;;;9.40;5.00;;;25.60;62.60;;;;;;5076535;28;20595;-65
2021/08/14 11:09:56;;;;;;;8.83;4.70;;;25.60;62.60;;;;;;5110876;27;20317;-64
2021/08/14 11:12:50;;;;;;;9.03;4.73;;;25.60;62.60;;;;;;5110990;27;20215;-65
2021/08/14 11:15:34;;;;;;;9.87;5.10;;;25.60;62.70;;;;;;5099865;27;20197;-65
2021/08/14 11:18:04;;;;;;;7.50;4.03;;;25.60;62.80;;;;;;5104834;27;20210;-64
2021/08/14 11:20:41;;;;;;;7.13;4.80;;;25.60;63.00;;;;;;5114330;27;20196;-65
2021/08/14 11:23:29;;;;;;;7.07;4.97;;;25.60;62.60;;;;;;5114672;27;20291;-65
2021/08/14 11:26:02;;;;;;;9.97;4.83;;;25.60;62.50;;;;;;5098438;27;21091;-65
2021/08/14 11:28:30;;;;;;;7.70;4.23;;;25.60;62.80;;;;;;5094622;28;20645;-65
2021/08/14 11:31:04;;;;;;;8.23;4.60;;;25.60;62.80;;;;;;5098585;27;20196;-65
2021/08/14 11:33:36;;;;;;;8.20;4.83;;;25.60;62.70;;;;;;5078162;28;20224;-65
2021/08/14 11:36:10;;;;;;;7.10;4.57;;;25.60;62.60;;;;;;5124597;27;20511;-65
2021/08/14 11:38:43;;;;;;;8.73;4.63;;;25.60;62.80;;;;;;5112275;27;20215;-65
2021/08/14 11:41:28;;;;;;;6.67;4.13;;;25.60;62.70;;;;;;5117293;27;20220;-65
2021/08/14 11:44:06;;;;;;;6.87;4.17;;;25.60;62.80;;;;;;5114262;27;20210;-65
2021/08/14 11:46:37;;;;;;;8.17;5.10;;;25.60;62.60;;;;;;5102028;28;20208;-66
2021/08/14 11:49:07;;;;;;;7.83;4.50;;;25.60;62.50;;;;;;5079121;28;20219;-65
2021/08/14 11:51:37;;;;;;;8.53;4.30;;;25.60;62.30;;;;;;5113245;27;20206;-64
2021/08/14 11:54:11;;;;;;;7.13;4.27;;;25.60;62.20;;;;;;5116865;27;20648;-65
2021/08/14 11:56:41;;;;;;;7.57;4.63;;;25.70;62.70;;;;;;5094847;28;20192;-65
2021/08/14 11:59:08;;;;;;;5.57;3.90;;;25.60;63.50;;;;;;5112564;27;20219;-65
2021/08/14 12:01:54;;;;;;;5.97;3.83;;;25.70;64.00;;;;;;5104545;27;20208;-65
2021/08/14 12:04:27;;;;;;;6.20;3.80;;;25.70;65.10;;;;;;5109144;27;20206;-63
2021/08/14 12:06:58;;;;;;;6.20;4.33;;;25.60;65.10;;;;;;5092480;28;20227;-68
2021/08/14 12:09:32;;;;;;;7.53;4.10;;;25.70;64.30;;;;;;5089976;28;20203;-69
2021/08/14 12:12:20;;;;;;;14.33;4.37;;;25.70;64.40;;;;;;5108598;27;20292;-69
2021/08/14 12:14:48;;;;;;;7.90;4.53;;;25.70;65.10;;;;;;5105433;28;20228;-70
2021/08/14 12:17:20;;;;;;;7.13;4.50;;;25.70;65.30;;;;;;5085238;28;20228;-70
2021/08/14 12:19:56;;;;;;;7.17;4.20;;;25.70;65.70;;;;;;5111073;27;20204;-70
2021/08/14 12:22:30;;;;;;;8.03;4.93;;;25.70;65.60;;;;;;5110201;27;20655;-69
2021/08/14 12:25:23;;;;;;;5.30;4.50;;;25.70;65.90;;;;;;5093510;28;20249;-70
2021/08/14 12:28:06;;;;;;;6.53;4.93;;;25.70;65.90;;;;;;5108244;28;20204;-70
2021/08/14 12:30:43;;;;;;;8.87;4.80;;;25.70;65.80;;;;;;5108721;27;20683;-66
2021/08/14 12:33:30;;;;;;;6.13;4.83;;;25.70;66.00;;;;;;5099251;27;20559;-68
2021/08/14 12:36:05;;;;;;;6.17;4.70;;;25.80;65.40;;;;;;5109128;27;20204;-68
2021/08/14 12:38:49;;;;;;;7.47;4.60;;;25.80;66.00;;;;;;5107897;27;20258;-68
2021/08/14 12:41:37;;;;;;;5.10;4.60;;;25.80;66.50;;;;;;5107995;27;20211;-69
2021/08/14 12:44:09;;;;;;;5.93;4.70;;;25.90;66.90;;;;;;5107484;27;20644;-69
2021/08/14 12:46:41;;;;;;;8.17;5.50;;;25.80;67.10;;;;;;5095037;27;20597;-70
2021/08/14 12:49:25;;;;;;;7.30;4.80;;;25.90;67.90;;;;;;5114782;27;20252;-72
2021/08/14 12:52:09;;;;;;;6.43;4.63;;;25.90;68.00;;;;;;5108288;27;20532;-69
2021/08/14 12:54:56;;;;;;;6.43;4.33;;;26.00;67.20;;;;;;5109632;27;20648;-73
2021/08/14 12:57:26;;;;;;;6.50;5.63;;;26.10;67.00;;;;;;5105154;27;20204;-76
2021/08/14 12:59:59;;;;;;;7.83;5.80;;;26.10;67.50;;;;;;5099059;28;20574;-75
2021/08/14 13:02:30;;;;;;;7.60;5.40;;;26.10;67.10;;;;;;5109013;27;20210;-72
2021/08/14 13:05:01;;;;;;;8.60;5.87;;;26.10;66.50;;;;;;5108859;27;20218;-70
2021/08/14 13:07:29;;;;;;;6.77;6.03;;;26.20;66.70;;;;;;5104657;27;20216;-71
2021/08/14 13:10:02;;;;;;;6.20;5.60;;;26.20;67.00;;;;;;5092891;27;20247;-67
2021/08/14 13:12:34;;;;;;;7.43;6.13;;;26.20;67.50;;;;;;5111568;27;20259;-68
2021/08/14 13:15:17;;;;;;;7.07;6.37;;;26.30;67.60;;;;;;5100747;27;20228;-68